首页
METAR-TAF:

METAR-TAF

机场 :

利兹, 英格兰

纬度: 53-52N, 经度: 001-39W, 海拔: 208米

当前天气观测

该预报发布于28分钟前的11:20 UTC
风速12节,风向北转东北,在北转西北东北之间变化
温度 16°C
湿度 88%
气压 1017 hPa
能见度10公里或以上
散云层高于400英尺
多云层高于600英尺

METAR: EGNM 141120Z 02012KT 330V050 9999 SCT004 BKN006 16/14 Q1017

时间: 12:48 (11:48 UTC)

预报

该预报发布于52分钟前的10:56 UTC
预报有效从14日的 12点(UTC)到 15日的 12点(UTC)
风速13节,风向北转东北
能见度10公里或以上
多云层高于500英尺
成为
从 14日的 12点(UTC)到 14日的 14点(UTC)
少量云层高于4500英尺
几率 40% :
短暂存在
从 14日的 12点(UTC)到 14日的 21点(UTC)
能見度: 7000
成为
从 14日的 18点(UTC)到 14日的 21点(UTC)
多云层高于1000英尺
短暂存在
从 14日的 21点(UTC)到 15日的 09点(UTC)
能見度: 3000
多云层高于400英尺
轻雾
几率 30% :
短暂存在
从 15日的 00点(UTC)到 15日的 06点(UTC)
能見度: 0300
多云层高于100英尺

TAF: EGNM 141056Z 1412/1512 02013KT 9999 BKN005 BECMG 1412/1414 FEW045 PROB40 TEMPO 1412/1421 7000 BECMG 1418/1421 BKN010 TEMPO 1421/1509 3000 BR BKN004 PROB30 TEMPO 1500/1506 0300 FG BKN001

超过4000个机场的气象观测和天气预报(METAR&TAF报告)。

可查询的气象台以黄色和红色小点在地图上表示。

将鼠标移到小点上方,可查看气象台名称。

然后点击查看天气观测和预报。

如需切换地图:点击带黑十字的绿色按钮放大地图;点击带横线的绿色按钮缩小地图;或者点击绿色箭头查看邻近地区的地图。


METAR-TAF: